Time;durP1;ratioP1;P1;durP2;ratioP2;P2;SDS_P1;SDS_P2;PMS_P1;PMS_P2;Temp;Humidity;BMP_temperature;BMP_pressure;BME280_temperature;BME280_humidity;BME280_pressure;Samples;Min_cycle;Max_cycle;Signal;HPM_P1;HPM_P2
2022/09/20 00:00:50;;;;;;;0.75;0.50;;;;;;;24.16;32.91;99132.75;4736951;30;20094;-85
2022/09/20 00:03:19;;;;;;;0.38;0.35;;;;;;;24.23;32.75;99142.41;4723989;30;20042;-85
2022/09/20 00:05:45;;;;;;;0.43;0.40;;;;;;;23.72;35.94;99145.16;4739624;30;20106;-85
2022/09/20 00:08:13;;;;;;;0.40;0.40;;;;;;;23.86;34.90;99139.69;4739933;30;20039;-85
2022/09/20 00:10:38;;;;;;;0.52;0.30;;;;;;;24.03;34.16;99155.41;4736819;30;20031;-84
2022/09/20 00:13:05;;;;;;;0.40;0.40;;;;;;;24.13;33.59;99160.66;4725999;30;20047;-85
2022/09/20 00:15:31;;;;;;;0.40;0.40;;;;;;;24.17;33.50;99169.81;4729580;30;20463;-85
2022/09/20 00:17:57;;;;;;;0.50;0.50;;;;;;;24.21;33.17;99166.50;4743678;30;20107;-85
2022/09/20 00:20:23;;;;;;;0.57;0.50;;;;;;;24.21;33.33;99161.81;4744599;30;20504;-85
2022/09/20 00:22:48;;;;;;;1.00;0.30;;;;;;;24.24;33.23;99168.59;4730943;30;20093;-84
2022/09/20 00:25:17;;;;;;;1.08;0.45;;;;;;;24.21;33.09;99161.03;4737369;30;20035;-84
2022/09/20 00:27:44;;;;;;;0.50;0.50;;;;;;;23.99;34.75;99168.06;4728505;30;20058;-84
2022/09/20 00:30:11;;;;;;;0.63;0.35;;;;;;;23.70;35.55;99161.00;4720332;30;20031;-84
2022/09/20 00:32:36;;;;;;;0.57;0.40;;;;;;;23.93;34.37;99166.56;4719266;30;20389;-84
2022/09/20 00:35:09;;;;;;;0.30;0.30;;;;;;;24.03;33.97;99168.28;4760581;30;20031;-84
2022/09/20 00:37:40;;;;;;;0.40;0.40;;;;;;;24.18;33.51;99182.38;4742814;30;20123;-85
2022/09/20 00:40:08;;;;;;;0.30;0.30;;;;;;;24.17;33.07;99175.28;4733181;30;20032;-84
2022/09/20 00:42:34;;;;;;;0.93;0.40;;;;;;;24.18;32.94;99173.34;4748384;30;20111;-85
2022/09/20 00:45:03;;;;;;;0.50;0.50;;;;;;;24.25;32.98;99195.59;4733343;30;20426;-84
2022/09/20 00:47:44;;;;;;;0.52;0.38;;;;;;;23.95;34.72;99186.97;4754082;30;20032;-84
2022/09/20 00:50:24;;;;;;;0.63;0.40;;;;;;;23.85;35.07;99189.91;4750523;30;20257;-84
2022/09/20 00:52:53;;;;;;;0.82;0.40;;;;;;;23.99;34.18;99198.91;4764121;30;20486;-84
2022/09/20 00:55:19;;;;;;;1.17;0.40;;;;;;;24.03;33.70;99182.72;4748103;30;20071;-84
2022/09/20 00:57:44;;;;;;;0.50;0.50;;;;;;;24.13;33.47;99187.16;4734400;30;20042;-84
2022/09/20 01:00:10;;;;;;;0.40;0.40;;;;;;;24.07;33.25;99180.19;4733725;30;20043;-84
2022/09/20 01:02:39;;;;;;;0.80;0.30;;;;;;;24.15;33.10;99185.72;4733504;30;20488;-84
2022/09/20 01:05:06;;;;;;;0.47;0.47;;;;;;;24.19;32.84;99196.81;4735724;30;20032;-84
2022/09/20 01:07:33;;;;;;;0.40;0.40;;;;;;;24.28;32.70;99205.09;4737527;30;20028;-84
2022/09/20 01:09:59;;;;;;;1.40;0.50;;;;;;;23.91;35.24;99196.88;4737526;30;20557;-84
2022/09/20 01:12:26;;;;;;;0.40;0.40;;;;;;;23.87;34.92;99211.44;4742340;30;20078;-84
2022/09/20 01:14:52;;;;;;;0.77;0.40;;;;;;;24.05;34.34;99207.78;4736986;30;20064;-84
2022/09/20 01:17:18;;;;;;;0.70;0.40;;;;;;;24.11;33.59;99201.09;4727499;30;20524;-84
2022/09/20 01:20:18;;;;;;;0.40;0.40;;;;;;;24.24;33.47;99201.38;4745894;30;20040;-84
2022/09/20 01:23:09;;;;;;;0.38;0.38;;;;;;;24.18;33.18;99196.03;4744206;30;20035;-84
2022/09/20 01:26:00;;;;;;;0.55;0.30;;;;;;;24.28;32.74;99205.88;4743396;30;20101;-83
2022/09/20 01:28:26;;;;;;;0.57;0.57;;;;;;;23.92;35.11;99203.13;4762683;30;20380;-83
2022/09/20 01:30:51;;;;;;;0.75;0.40;;;;;;;23.90;35.11;99219.81;4741287;30;20039;-84
2022/09/20 01:33:43;;;;;;;0.30;0.30;;;;;;;24.02;34.24;99208.38;4753012;30;20035;-84
2022/09/20 01:36:10;;;;;;;0.40;0.40;;;;;;;24.17;33.70;99227.16;4767190;30;20047;-84
2022/09/20 01:38:49;;;;;;;1.10;0.30;;;;;;;24.22;33.53;99226.25;4731438;30;20391;-84
2022/09/20 01:41:20;;;;;;;0.45;0.35;;;;;;;24.25;32.94;99227.53;4744543;30;20127;-84
2022/09/20 01:43:52;;;;;;;0.30;0.30;;;;;;;24.19;32.80;99222.19;4732960;30;20036;-84
2022/09/20 01:46:24;;;;;;;0.40;0.40;;;;;;;23.74;35.38;99224.75;4745098;30;20383;-84
2022/09/20 01:48:49;;;;;;;0.50;0.50;;;;;;;23.94;34.95;99233.66;4746549;30;20185;-84
2022/09/20 01:51:27;;;;;;;0.50;0.40;;;;;;;24.08;34.09;99233.66;4723389;30;20131;-84
2022/09/20 01:54:11;;;;;;;1.40;0.45;;;;;;;24.18;33.59;99239.69;4749134;30;20058;-84
2022/09/20 01:57:12;;;;;;;0.85;0.32;;;;;;;24.24;33.13;99239.59;4759120;30;20060;-84
2022/09/20 01:59:52;;;;;;;0.75;0.30;;;;;;;23.95;34.98;99246.19;4760825;30;20043;-84
2022/09/20 02:02:33;;;;;;;0.30;0.30;;;;;;;23.94;34.95;99234.47;4764143;30;20069;-84
2022/09/20 02:05:32;;;;;;;0.77;0.40;;;;;;;24.09;34.00;99238.78;4766866;30;20028;-84
2022/09/20 02:08:19;;;;;;;0.30;0.30;;;;;;;24.18;33.45;99239.69;4751331;30;20035;-84
2022/09/20 02:11:10;;;;;;;0.28;0.28;;;;;;;24.17;33.39;99234.53;4745881;30;20028;-84
2022/09/20 02:13:39;;;;;;;0.38;0.32;;;;;;;24.27;33.07;99252.63;4762916;30;20500;-84
2022/09/20 02:16:28;;;;;;;1.40;0.52;;;;;;;23.94;35.23;99259.03;4766938;30;20028;-84
2022/09/20 02:19:20;;;;;;;0.63;0.40;;;;;;;23.94;34.71;99250.00;4766030;30;20040;-84
2022/09/20 02:22:10;;;;;;;0.40;0.40;;;;;;;24.09;33.72;99268.81;4739196;30;20619;-84
2022/09/20 02:24:50;;;;;;;0.40;0.40;;;;;;;24.11;33.21;99261.16;4756379;30;20051;-84
2022/09/20 02:27:34;;;;;;;0.50;0.40;;;;;;;24.19;33.05;99268.59;4758191;30;20062;-84
2022/09/20 02:30:05;;;;;;;0.30;0.30;;;;;;;24.25;32.93;99276.66;4767016;30;20091;-84
2022/09/20 02:32:42;;;;;;;0.30;0.30;;;;;;;23.75;35.68;99286.38;4766996;30;20040;-84
2022/09/20 02:35:17;;;;;;;0.73;0.30;;;;;;;23.99;34.41;99285.38;4759238;30;20136;-84
2022/09/20 02:38:10;;;;;;;0.40;0.40;;;;;;;24.11;33.60;99298.53;4759332;30;20579;-84
2022/09/20 02:40:53;;;;;;;0.40;0.40;;;;;;;24.06;33.42;99280.34;4742361;30;20160;-84
2022/09/20 02:43:26;;;;;;;0.20;0.20;;;;;;;24.15;33.25;99288.63;4757822;30;20031;-84
2022/09/20 02:45:55;;;;;;;0.38;0.32;;;;;;;24.26;33.01;99302.88;4755342;30;20409;-84
2022/09/20 02:48:27;;;;;;;0.30;0.30;;;;;;;23.65;35.44;99278.41;4754289;30;20032;-84
2022/09/20 02:51:21;;;;;;;0.43;0.38;;;;;;;23.98;34.60;99303.69;4740325;30;20549;-84
2022/09/20 02:54:14;;;;;;;1.90;0.38;;;;;;;24.07;33.90;99317.44;4733549;30;20079;-84
2022/09/20 02:57:01;;;;;;;0.30;0.30;;;;;;;24.08;33.13;99305.41;4765964;30;20038;-84
2022/09/20 02:59:42;;;;;;;0.50;0.50;;;;;;;24.17;33.19;99324.63;4742131;30;20391;-84
2022/09/20 03:02:07;;;;;;;1.25;0.38;;;;;;;24.15;33.84;99321.38;4756552;30;20044;-84
2022/09/20 03:04:48;;;;;;;0.25;0.25;;;;;;;23.67;35.64;99336.16;4754355;30;20051;-84
2022/09/20 03:07:32;;;;;;;0.35;0.35;;;;;;;23.97;34.34;99336.72;4765594;30;20065;-84
2022/09/20 03:10:10;;;;;;;0.30;0.30;;;;;;;24.07;33.62;99331.06;4765875;30;20035;-84
2022/09/20 03:13:06;;;;;;;2.20;0.40;;;;;;;24.05;33.42;99327.84;4766150;30;20238;-84
2022/09/20 03:15:37;;;;;;;0.30;0.30;;;;;;;24.18;33.02;99343.41;4723575;30;20082;-84
2022/09/20 03:18:09;;;;;;;0.40;0.30;;;;;;;24.19;33.02;99341.50;4763818;30;20482;-84
2022/09/20 03:20:58;;;;;;;0.50;0.30;;;;;;;23.71;35.47;99353.53;4751508;30;20028;-84
2022/09/20 03:23:53;;;;;;;0.30;0.30;;;;;;;23.94;34.40;99356.44;4742803;30;20039;-84
2022/09/20 03:26:18;;;;;;;;;;;;;;;24.03;33.88;99365.56;4760658;30;20023;-84
2022/09/20 03:28:54;;;;;;;0.30;0.30;;;;;;;24.13;33.59;99367.28;4764628;30;19971;-84
2022/09/20 03:31:54;;;;;;;0.25;0.25;;;;;;;24.10;32.99;99357.78;4734985;30;20059;-83
2022/09/20 03:34:25;;;;;;;0.40;0.40;;;;;;;24.15;32.72;99362.34;4742692;30;20081;-83
2022/09/20 03:37:23;;;;;;;0.20;0.20;;;;;;;23.75;35.58;99379.13;4756034;30;20036;-84
2022/09/20 03:40:10;;;;;;;0.30;0.30;;;;;;;23.93;34.52;99379.38;4740420;30;20031;-84
2022/09/20 03:42:39;;;;;;;0.70;0.30;;;;;;;23.98;33.80;99373.84;4754660;30;20039;-84
2022/09/20 03:45:18;;;;;;;0.30;0.30;;;;;;;24.10;33.35;99379.59;4745079;30;20110;-84
2022/09/20 03:48:00;;;;;;;2.85;0.30;;;;;;;24.16;33.10;99388.50;4741026;30;20059;-84
2022/09/20 03:50:34;;;;;;;0.20;0.20;;;;;;;24.17;32.95;99385.47;4721204;30;20482;-84
2022/09/20 03:53:26;;;;;;;0.63;0.40;;;;;;;24.15;32.92;99382.25;4755153;30;20039;-84
2022/09/20 03:55:57;;;;;;;0.40;0.30;;;;;;;23.79;35.42;99388.31;4742931;30;20311;-84
2022/09/20 03:58:55;;;;;;;0.30;0.30;;;;;;;23.92;34.60;99394.13;4757848;30;20050;-84
2022/09/20 04:01:28;;;;;;;0.40;0.30;;;;;;;24.03;33.77;99403.75;4722180;30;20044;-84
2022/09/20 04:04:07;;;;;;;0.20;0.20;;;;;;;24.03;33.34;99401.03;4730979;30;20130;-84
2022/09/20 04:06:51;;;;;;;0.30;0.30;;;;;;;24.17;33.24;99412.75;4746290;30;20119;-84
2022/09/20 04:09:47;;;;;;;1.25;0.30;;;;;;;24.19;32.83;99416.00;4744208;30;20111;-84
2022/09/20 04:12:19;;;;;;;0.20;0.20;;;;;;;24.24;32.57;99419.75;4746734;30;20056;-84
2022/09/20 04:15:08;;;;;;;0.30;0.30;;;;;;;23.72;35.78;99422.56;4744931;30;20556;-84
2022/09/20 04:17:58;;;;;;;0.30;0.30;;;;;;;23.88;34.27;99417.69;4739609;30;20048;-84
2022/09/20 04:20:59;;;;;;;0.38;0.38;;;;;;;24.02;33.83;99431.34;4745610;30;20103;-84
2022/09/20 04:24:06;;;;;;;0.30;0.30;;;;;;;24.15;33.18;99436.03;4722194;30;20048;-84
2022/09/20 04:26:39;;;;;;;0.30;0.30;;;;;;;24.16;32.89;99449.38;4728743;30;20130;-84
2022/09/20 04:29:33;;;;;;;0.25;0.25;;;;;;;23.93;34.64;99436.69;4731027;30;20390;-84
2022/09/20 04:32:04;;;;;;;0.30;0.30;;;;;;;23.69;35.07;99432.13;4740398;30;20039;-84
2022/09/20 04:37:31;;;;;;;0.20;0.20;;;;;;;23.99;33.49;99439.03;4745520;30;20039;-84
2022/09/20 04:40:07;;;;;;;0.30;0.30;;;;;;;24.11;33.05;99452.19;4715713;30;20032;-84
2022/09/20 04:42:45;;;;;;;0.20;0.20;;;;;;;24.16;32.84;99464.94;4745677;30;20035;-84
2022/09/20 04:45:39;;;;;;;0.25;0.25;;;;;;;24.02;34.26;99464.91;4745402;30;20536;-84
2022/09/20 04:48:41;;;;;;;0.30;0.30;;;;;;;23.77;34.71;99472.38;4745765;30;20047;-84
2022/09/20 04:51:27;;;;;;;0.50;0.40;;;;;;;23.90;33.92;99472.75;4739597;30;20517;-84
2022/09/20 04:54:14;;;;;;;0.30;0.30;;;;;;;24.07;33.25;99478.47;4745165;30;20044;-84
2022/09/20 04:57:07;;;;;;;0.30;0.30;;;;;;;24.09;33.22;99483.63;4747079;30;20047;-84
2022/09/20 05:00:11;;;;;;;0.40;0.30;;;;;;;23.99;34.18;99487.31;4746868;30;20028;-84
2022/09/20 05:02:44;;;;;;;0.30;0.30;;;;;;;23.69;35.42;99496.81;4731676;30;20044;-84
2022/09/20 05:05:46;;;;;;;0.30;0.30;;;;;;;23.92;34.18;99508.72;4731590;30;20082;-85
2022/09/20 05:08:27;;;;;;;0.35;0.30;;;;;;;24.07;33.46;99510.41;4750897;30;20066;-84
2022/09/20 05:11:16;;;;;;;0.73;0.20;;;;;;;24.09;33.04;99511.72;4748768;30;20032;-85
2022/09/20 05:14:03;;;;;;;0.38;0.30;;;;;;;24.13;33.30;99520.16;4749541;30;20123;-84
2022/09/20 05:17:01;;;;;;;0.20;0.20;;;;;;;23.57;35.61;99513.63;4748446;30;20403;-84
2022/09/20 05:19:51;;;;;;;0.30;0.30;;;;;;;23.94;34.17;99520.16;4749428;30;20032;-84
2022/09/20 05:22:31;;;;;;;0.43;0.32;;;;;;;24.04;33.49;99528.19;4748618;30;20036;-85
2022/09/20 05:25:06;;;;;;;0.30;0.30;;;;;;;24.08;33.30;99523.75;4734005;30;20485;-84
2022/09/20 05:27:53;;;;;;;0.35;0.35;;;;;;;24.07;33.07;99526.78;4748159;30;20029;-85
2022/09/20 05:30:37;;;;;;;0.30;0.30;;;;;;;23.75;35.24;99542.81;4749104;30;20035;-85
2022/09/20 05:33:38;;;;;;;0.43;0.43;;;;;;;23.92;34.25;99541.47;4747484;30;20043;-85
2022/09/20 05:36:25;;;;;;;0.30;0.30;;;;;;;24.00;33.54;99549.78;4706119;30;20127;-85
2022/09/20 05:38:58;;;;;;;0.47;0.30;;;;;;;24.03;33.36;99544.88;4748929;30;20490;-85
2022/09/20 05:41:44;;;;;;;0.38;0.30;;;;;;;24.11;33.05;99555.91;4734257;30;20042;-84
2022/09/20 05:44:40;;;;;;;0.32;0.30;;;;;;;23.66;35.46;99558.19;4749149;30;20345;-84
2022/09/20 05:47:34;;;;;;;0.30;0.30;;;;;;;23.91;34.08;99570.69;4732634;30;20036;-84
2022/09/20 05:50:36;;;;;;;0.30;0.30;;;;;;;23.99;33.61;99564.56;4749887;30;20149;-84
2022/09/20 05:53:24;;;;;;;0.30;0.30;;;;;;;24.10;33.42;99575.31;4749438;30;20036;-84
2022/09/20 05:56:00;;;;;;;0.40;0.25;;;;;;;24.12;33.04;99582.09;4748939;30;20043;-84
2022/09/20 05:58:34;;;;;;;0.75;0.20;;;;;;;23.69;35.37;99582.16;4746393;30;20040;-84
2022/09/20 06:01:05;;;;;;;0.52;0.30;;;;;;;23.76;34.42;99571.69;4756837;30;20051;-84
2022/09/20 06:03:44;;;;;;;0.38;0.30;;;;;;;23.92;33.67;99576.94;4761532;30;20042;-84
2022/09/20 06:06:29;;;;;;;0.30;0.30;;;;;;;24.04;33.21;99599.13;4749462;30;20401;-84
2022/09/20 06:09:02;;;;;;;0.30;0.30;;;;;;;24.10;33.19;99597.16;4750807;30;20039;-84
2022/09/20 06:12:06;;;;;;;0.35;0.35;;;;;;;24.02;33.96;99604.09;4754752;30;20389;-84
2022/09/20 06:15:01;;;;;;;0.30;0.30;;;;;;;23.70;34.94;99597.44;4757056;30;20529;-83
2022/09/20 06:17:35;;;;;;;0.30;0.30;;;;;;;23.86;34.12;99598.06;4755816;30;20071;-84
2022/09/20 06:20:20;;;;;;;0.30;0.30;;;;;;;24.00;33.58;99603.56;4732410;30;20035;-84
2022/09/20 06:22:50;;;;;;;0.30;0.30;;;;;;;24.06;33.10;99601.56;4767107;30;20378;-84
2022/09/20 06:25:40;;;;;;;0.30;0.30;;;;;;;24.09;33.42;99618.16;4749861;30;20032;-84
2022/09/20 06:28:22;;;;;;;0.30;0.30;;;;;;;23.60;35.33;99616.66;4758277;30;20482;-84
2022/09/20 06:30:49;;;;;;;0.63;0.40;;;;;;;23.86;34.34;99616.34;4745664;30;20040;-84
2022/09/20 06:33:16;;;;;;;0.22;0.22;;;;;;;23.95;33.75;99634.47;4746295;30;20063;-84
2022/09/20 06:35:46;;;;;;;0.20;0.20;;;;;;;24.03;33.17;99627.56;4732647;30;20044;-84
2022/09/20 06:41:27;;;;;;;0.30;0.30;;;;;;;23.67;35.01;99632.69;4766064;30;20047;-84
2022/09/20 06:43:59;;;;;;;0.20;0.20;;;;;;;23.92;34.00;99642.44;4732864;30;20039;-84
2022/09/20 06:46:33;;;;;;;1.20;0.57;;;;;;;24.03;33.79;99652.13;4740473;30;20058;-84
2022/09/20 06:48:59;;;;;;;0.47;0.30;;;;;;;24.04;33.18;99656.44;4723380;30;20032;-84
2022/09/20 06:51:26;;;;;;;0.30;0.30;;;;;;;24.06;33.14;99656.16;4746873;30;20066;-84
2022/09/20 06:53:52;;;;;;;0.20;0.20;;;;;;;23.64;35.27;99672.25;4740216;30;20045;-84
2022/09/20 06:56:19;;;;;;;0.65;0.40;;;;;;;23.74;34.37;99661.19;4741222;30;20046;-84
2022/09/20 06:58:45;;;;;;;0.40;0.30;;;;;;;23.87;33.84;99665.16;4747230;30;20036;-84
2022/09/20 07:01:12;;;;;;;0.38;0.20;;;;;;;24.00;33.42;99682.72;4730050;30;20056;-84
2022/09/20 07:03:39;;;;;;;0.22;0.20;;;;;;;23.96;33.94;99684.44;4746918;30;20039;-84
2022/09/20 07:06:05;;;;;;;0.38;0.38;;;;;;;23.55;35.03;99680.25;4744913;30;20030;-84
2022/09/20 07:08:30;;;;;;;0.20;0.20;;;;;;;23.83;34.32;99696.84;4729564;30;20390;-84
2022/09/20 07:10:56;;;;;;;0.52;0.30;;;;;;;24.01;34.01;99692.53;4735482;30;20031;-84
2022/09/20 07:13:22;;;;;;;0.28;0.28;;;;;;;24.10;33.76;99698.16;4735089;30;20710;-84
2022/09/20 07:15:49;;;;;;;0.20;0.20;;;;;;;24.11;33.53;99697.84;4744884;30;20031;-85
2022/09/20 07:18:15;;;;;;;0.30;0.30;;;;;;;24.06;33.60;99692.47;4724902;30;20043;-85
2022/09/20 07:20:40;;;;;;;0.30;0.30;;;;;;;24.11;33.73;99714.25;4748999;30;20346;-85
2022/09/20 07:23:07;;;;;;;0.30;0.30;;;;;;;24.10;33.31;99711.81;4741736;30;20031;-84
2022/09/20 07:25:33;;;;;;;0.30;0.30;;;;;;;24.13;33.55;99709.28;4750069;30;20036;-84
2022/09/20 07:27:58;;;;;;;1.33;0.20;;;;;;;24.11;33.41;99716.97;4724444;30;20074;-84
2022/09/20 07:30:24;;;;;;;0.20;0.20;;;;;;;24.11;33.65;99725.16;4748159;30;20036;-84
2022/09/20 07:32:50;;;;;;;0.20;0.20;;;;;;;24.03;33.32;99720.34;4750036;30;20038;-84
2022/09/20 07:35:16;;;;;;;1.45;0.30;;;;;;;24.12;33.41;99737.69;4719839;30;20111;-84
2022/09/20 07:37:41;;;;;;;2.20;0.30;;;;;;;24.07;33.57;99732.28;4748818;30;20032;-84
2022/09/20 07:40:08;;;;;;;0.20;0.20;;;;;;;24.07;33.33;99740.47;4739590;30;20130;-84
2022/09/20 07:42:34;;;;;;;0.40;0.30;;;;;;;24.09;33.27;99737.47;4728548;30;20039;-84
2022/09/20 07:45:01;;;;;;;0.55;0.40;;;;;;;24.13;33.18;99744.78;4750748;30;20386;-84
2022/09/20 07:47:30;;;;;;;0.60;0.30;;;;;;;24.06;33.19;99744.34;4720500;30;20065;-84
2022/09/20 07:49:55;;;;;;;1.58;0.38;;;;;;;24.19;33.20;99765.41;4748277;30;20493;-84
2022/09/20 07:52:21;;;;;;;0.30;0.30;;;;;;;24.13;33.14;99755.69;4734172;30;20096;-84
2022/09/20 07:54:48;;;;;;;0.32;0.32;;;;;;;24.08;33.15;99753.03;4743383;30;20039;-85
2022/09/20 07:57:16;;;;;;;1.20;0.30;;;;;;;24.10;33.36;99761.72;4744999;30;20043;-85
2022/09/20 07:59:42;;;;;;;0.70;0.25;;;;;;;24.04;33.29;99762.88;4727344;30;20048;-85
2022/09/20 08:02:12;;;;;;;1.30;0.30;;;;;;;24.06;32.88;99777.09;4746915;30;20106;-85
2022/09/20 08:04:38;;;;;;;0.30;0.30;;;;;;;24.04;33.10;99773.81;4731567;30;20513;-85
2022/09/20 08:07:04;;;;;;;0.38;0.30;;;;;;;24.06;33.21;99778.97;4731914;30;20123;-85
2022/09/20 08:09:30;;;;;;;0.40;0.30;;;;;;;23.96;33.21;99771.75;4730920;30;20053;-84
2022/09/20 08:11:56;;;;;;;2.00;0.30;;;;;;;24.06;33.34;99789.91;4746459;30;20042;-85
2022/09/20 08:14:23;;;;;;;1.17;0.30;;;;;;;24.00;33.21;99789.97;4746373;30;20032;-85
2022/09/20 08:16:50;;;;;;;0.32;0.32;;;;;;;24.02;33.16;99797.84;4730942;30;20047;-86
2022/09/20 08:19:20;;;;;;;0.30;0.30;;;;;;;23.98;33.20;99791.38;4731916;30;20035;-86
2022/09/20 08:21:46;;;;;;;0.22;0.22;;;;;;;24.02;33.45;99802.50;4717025;30;20040;-86
2022/09/20 08:24:12;;;;;;;0.35;0.32;;;;;;;23.97;33.35;99808.84;4731654;30;20522;-85
2022/09/20 08:26:37;;;;;;;0.35;0.30;;;;;;;24.02;33.32;99811.50;4716776;30;20543;-85
2022/09/20 08:29:04;;;;;;;0.30;0.30;;;;;;;23.99;33.09;99812.09;4716524;30;20036;-86
2022/09/20 08:31:33;;;;;;;0.40;0.40;;;;;;;23.96;33.30;99818.94;4731593;30;20507;-85
2022/09/20 08:34:02;;;;;;;0.30;0.30;;;;;;;23.92;33.17;99814.34;4745795;30;20032;-86
2022/09/20 08:36:28;;;;;;;0.90;0.40;;;;;;;24.02;33.16;99829.81;4745924;30;20035;-86
2022/09/20 08:38:54;;;;;;;0.52;0.32;;;;;;;24.08;32.86;99840.38;4729824;30;20483;-86
2022/09/20 08:41:56;;;;;;;0.57;0.30;;;;;;;24.12;33.11;99835.16;4730603;30;20040;-86
2022/09/20 08:44:31;;;;;;;0.57;0.30;;;;;;;24.12;33.08;99844.13;4736240;30;20048;-87
2022/09/20 08:47:14;;;;;;;0.30;0.30;;;;;;;24.07;32.97;99844.19;4746601;30;20059;-87
2022/09/20 08:49:40;;;;;;;0.20;0.20;;;;;;;24.02;33.07;99855.19;4744710;30;20035;-87
2022/09/20 08:52:06;;;;;;;0.20;0.20;;;;;;;23.95;32.85;99841.06;4731089;30;20794;-87
2022/09/20 08:54:32;;;;;;;0.30;0.30;;;;;;;24.03;33.07;99865.00;4731260;30;20035;-87
2022/09/20 08:57:03;;;;;;;0.73;0.40;;;;;;;23.97;32.80;99866.16;4731032;30;21793;-87
2022/09/20 08:59:30;;;;;;;0.28;0.28;;;;;;;23.89;32.88;99859.41;4717122;30;20032;-87
2022/09/20 09:01:57;;;;;;;0.40;0.30;;;;;;;23.93;33.01;99862.38;4744978;30;20048;-87
2022/09/20 09:04:23;;;;;;;0.30;0.30;;;;;;;23.89;32.92;99859.41;4727230;30;20090;-86
2022/09/20 09:06:51;;;;;;;0.65;0.40;;;;;;;23.94;32.95;99866.72;4738352;30;20114;-87
2022/09/20 09:09:25;;;;;;;0.55;0.30;;;;;;;23.91;32.81;99859.94;4737931;30;20063;-86
2022/09/20 09:11:52;;;;;;;0.35;0.35;;;;;;;23.93;32.93;99865.13;4745090;30;20032;-87
2022/09/20 09:17:23;;;;;;;0.20;0.20;;;;;;;23.95;33.00;99868.34;4748816;30;20062;-86
2022/09/20 09:19:56;;;;;;;1.08;0.30;;;;;;;23.91;33.05;99872.78;4757772;30;20032;-87
2022/09/20 09:22:34;;;;;;;0.28;0.28;;;;;;;23.91;32.71;99873.59;4750143;30;20127;-87
2022/09/20 09:25:19;;;;;;;0.30;0.30;;;;;;;24.02;32.81;99879.75;4748771;30;20032;-87
2022/09/20 09:27:53;;;;;;;0.30;0.30;;;;;;;24.02;32.60;99877.00;4734272;30;20131;-87
2022/09/20 09:30:25;;;;;;;;;;;;;;;24.11;32.36;99886.22;4748950;30;20039;-87
2022/09/20 09:32:51;;;;;;;0.30;0.30;;;;;;;23.98;32.51;99875.97;4741442;30;19965;-87
2022/09/20 09:35:30;;;;;;;0.30;0.30;;;;;;;23.97;32.36;99877.06;4727281;30;20126;-87
2022/09/20 09:38:00;;;;;;;0.70;0.40;;;;;;;23.90;32.50;99871.16;4736291;30;20069;-86
2022/09/20 09:40:26;;;;;;;0.38;0.38;;;;;;;24.05;32.30;99916.56;4722639;30;20477;-87
2022/09/20 09:42:54;;;;;;;0.40;0.40;;;;;;;24.01;32.61;99899.97;4720763;30;20036;-86
2022/09/20 09:45:39;;;;;;;0.47;0.40;;;;;;;24.02;32.46;99908.97;4736669;30;20503;-87
2022/09/20 09:48:21;;;;;;;2.13;0.40;;;;;;;24.01;32.48;99910.88;4741484;30;20054;-86
2022/09/20 09:50:47;;;;;;;0.40;0.38;;;;;;;23.95;32.46;99904.63;4743179;30;20118;-86
2022/09/20 09:53:16;;;;;;;2.17;0.30;;;;;;;23.93;32.47;99914.22;4734246;30;20111;-86
2022/09/20 09:56:20;;;;;;;0.40;0.40;;;;;;;23.97;32.53;99909.81;4721916;30;20190;-86
2022/09/20 09:59:06;;;;;;;0.98;0.32;;;;;;;23.96;32.63;99919.13;4754495;30;20798;-86
2022/09/20 10:01:50;;;;;;;0.75;0.32;;;;;;;23.95;32.43;99928.41;4755009;30;20067;-86
2022/09/20 10:04:49;;;;;;;0.30;0.30;;;;;;;23.95;32.50;99928.41;4759206;30;20067;-86
2022/09/20 10:07:23;;;;;;;1.05;0.40;;;;;;;23.92;32.67;99920.78;4757351;30;20035;-86
2022/09/20 10:10:04;;;;;;;0.52;0.43;;;;;;;23.87;32.61;99921.66;4725253;30;20036;-86
2022/09/20 10:12:57;;;;;;;0.30;0.30;;;;;;;23.95;32.58;99933.84;4740662;30;20035;-87
2022/09/20 10:15:31;;;;;;;0.30;0.30;;;;;;;23.96;32.22;99933.56;4738303;30;20048;-87
2022/09/20 10:18:27;;;;;;;0.50;0.50;;;;;;;24.07;32.17;99944.38;4745805;30;20640;-86
2022/09/20 10:21:15;;;;;;;1.85;0.50;;;;;;;24.10;31.98;99938.34;4755733;30;20514;-87
2022/09/20 10:23:59;;;;;;;0.30;0.30;;;;;;;24.09;32.39;99951.16;4751537;30;20051;-87
2022/09/20 10:27:14;;;;;;;0.50;0.40;;;;;;;24.04;32.14;99959.41;4748079;30;20036;-87
2022/09/20 10:30:09;;;;;;;0.70;0.40;;;;;;;24.04;32.41;99969.53;4701086;30;20112;-86
2022/09/20 10:32:48;;;;;;;0.30;0.30;;;;;;;24.00;32.41;99969.28;4680580;30;20486;-86
2022/09/20 10:35:51;;;;;;;1.02;0.40;;;;;;;24.02;32.34;99972.53;4744346;30;20043;-86
2022/09/20 10:38:35;;;;;;;1.30;0.40;;;;;;;23.99;32.10;99971.22;4750669;30;20040;-87
2022/09/20 10:44:17;;;;;;;0.55;0.40;;;;;;;23.94;32.29;99976.72;4758270;30;20107;-86
2022/09/20 10:47:05;;;;;;;0.52;0.30;;;;;;;24.00;32.48;99993.84;4740442;30;20044;-86
2022/09/20 10:49:41;;;;;;;0.40;0.40;;;;;;;23.97;32.50;99991.69;4747614;30;20036;-87
2022/09/20 10:52:30;;;;;;;1.00;0.40;;;;;;;23.98;32.41;99999.59;4738985;30;20036;-86
2022/09/20 10:55:14;;;;;;;0.60;0.50;;;;;;;23.99;32.44;100000.41;4733145;30;20036;-86
2022/09/20 10:57:52;;;;;;;;;;;;;;;23.98;32.33;100004.25;4760052;30;20311;-87
2022/09/20 11:00:23;;;;;;;0.50;0.50;;;;;;;23.94;32.17;100004.00;4753471;30;19925;-87
2022/09/20 11:03:11;;;;;;;0.60;0.50;;;;;;;23.97;32.43;100011.63;4741699;30;20069;-87
2022/09/20 11:05:46;;;;;;;1.17;0.40;;;;;;;24.00;32.47;100021.16;4751541;30;20384;-87
2022/09/20 11:08:17;;;;;;;0.50;0.40;;;;;;;24.03;31.80;100006.94;4738290;30;20042;-87
2022/09/20 11:10:45;;;;;;;1.65;0.30;;;;;;;24.07;31.83;100018.91;4730760;30;20042;-88
2022/09/20 11:13:32;;;;;;;0.50;0.43;;;;;;;24.11;32.02;100022.69;4718568;30;20394;-87
2022/09/20 11:16:12;;;;;;;1.25;0.50;;;;;;;24.08;31.91;100015.06;4753942;30;20023;-87
2022/09/20 11:19:17;;;;;;;0.55;0.45;;;;;;;24.08;31.98;100031.44;4733933;30;20670;-87
2022/09/20 11:22:09;;;;;;;0.32;0.32;;;;;;;24.05;32.04;100031.22;4740248;30;20048;-87
2022/09/20 11:24:36;;;;;;;0.40;0.32;;;;;;;24.06;31.93;100038.28;4741565;30;20032;-87
2022/09/20 11:27:06;;;;;;;0.63;0.30;;;;;;;24.06;31.79;100044.59;4754712;30;20124;-87
2022/09/20 11:30:00;;;;;;;0.80;0.45;;;;;;;24.02;31.93;100043.50;4746808;30;20032;-87
2022/09/20 11:32:31;;;;;;;0.30;0.30;;;;;;;24.03;32.23;100053.34;4740023;30;20027;-87
2022/09/20 11:35:10;;;;;;;0.60;0.32;;;;;;;24.02;32.09;100046.22;4737786;30;20150;-87
2022/09/20 11:37:38;;;;;;;0.52;0.50;;;;;;;24.00;31.96;100053.91;4737155;30;20046;-87
2022/09/20 11:40:12;;;;;;;0.40;0.40;;;;;;;23.99;32.17;100052.25;4753656;30;20110;-88
2022/09/20 11:42:37;;;;;;;0.40;0.40;;;;;;;24.00;31.93;100057.44;4752962;30;20051;-87
2022/09/20 11:45:03;;;;;;;0.43;0.30;;;;;;;23.98;32.24;100053.38;4740617;30;20496;-87
2022/09/20 11:47:34;;;;;;;0.40;0.40;;;;;;;24.04;32.13;100063.13;4735564;30;20050;-87
2022/09/20 11:50:25;;;;;;;0.73;0.38;;;;;;;24.03;32.08;100066.19;4732625;30;20032;-86
2022/09/20 11:53:17;;;;;;;0.32;0.32;;;;;;;24.03;32.01;100075.16;4748539;30;20036;-86
2022/09/20 11:56:17;;;;;;;0.70;0.30;;;;;;;24.03;31.88;100077.09;4725605;30;20052;-87
2022/09/20 11:58:47;;;;;;;0.60;0.47;;;;;;;24.03;31.72;100094.28;4752319;30;20113;-86
2022/09/20 12:01:14;;;;;;;2.20;0.40;;;;;;;24.00;31.98;100081.19;4746695;30;20040;-86
2022/09/20 12:03:40;;;;;;;0.65;0.50;;;;;;;24.09;31.95;100087.66;4716733;30;20032;-86
2022/09/20 12:06:26;;;;;;;1.00;0.63;;;;;;;24.16;31.53;100104.56;4717328;30;20032;-87
2022/09/20 12:08:52;;;;;;;0.52;0.40;;;;;;;24.16;31.42;100098.25;4745718;30;20084;-86
2022/09/20 12:11:32;;;;;;;0.30;0.30;;;;;;;24.09;31.69;100097.78;4719539;30;20077;-87
2022/09/20 12:14:06;;;;;;;0.40;0.40;;;;;;;24.14;31.58;100109.47;4717789;30;20031;-86
2022/09/20 12:16:40;;;;;;;0.55;0.50;;;;;;;24.11;31.45;100112.78;4721002;30;20029;-85
2022/09/20 12:19:20;;;;;;;0.30;0.30;;;;;;;23.99;31.63;100091.31;4746179;30;20041;-86
2022/09/20 12:21:58;;;;;;;0.57;0.40;;;;;;;24.10;31.62;100116.59;4745672;30;20036;-86
2022/09/20 12:24:30;;;;;;;0.47;0.40;;;;;;;24.03;31.74;100110.66;4747415;30;20131;-86
2022/09/20 12:27:15;;;;;;;0.82;0.40;;;;;;;24.08;31.59;100128.91;4732152;30;20043;-86
2022/09/20 12:29:47;;;;;;;0.50;0.32;;;;;;;24.05;31.64;100129.47;4745756;30;20035;-86
2022/09/20 12:32:43;;;;;;;0.52;0.30;;;;;;;24.04;31.91;100127.84;4746179;30;20517;-86